Terminal Aerodrome Forecast
Issued by NWS

Home | Current Version | Previous Version | Text Only | Print | Product List | Glossary On
Versions: 1 2 3 4 5 6 7 8 9 10 11 12
000
FTUS45 KABQ 220500
TAFROW
TAF
KROW 220524Z 2206/2306 33008KT P6SM BKN200
     FM221200 31013KT P6SM SCT150 BKN200
     FM221700 31018G28KT P6SM SCT120 BKN200
     FM230000 27015KT P6SM FEW050 SCT120=

USA.gov is the U.S. government's official web portal to all federal, state and local government web resources and services.